Time,TemperatureF,DewpointF,PressureIn,WindDirection,WindDirectionDegrees,WindSpeedMPH,WindSpeedGustMPH,Humidity,HourlyPrecipIn,Conditions,Clouds,dailyrainin,SoftwareType,DateUTC
2013-08-28 00:00:00,68.4,54.0,29.77,South,188,1.0,4.0,60,0.00,,CLR,0.00,VWS V14.01,2013-08-28 07:00:00,
2013-08-28 00:05:00,68.4,54.0,29.77,South,177,0.0,3.0,60,0.00,,CLR,0.00,VWS V14.01,2013-08-28 07:05:00,
2013-08-28 00:10:00,68.3,53.9,29.77,South,174,0.0,3.0,60,0.00,,CLR,0.00,VWS V14.01,2013-08-28 07:10:00,
2013-08-28 00:15:00,68.2,53.8,29.77,SSW,200,0.0,3.0,60,0.00,,CLR,0.00,VWS V14.01,2013-08-28 07:15:00,
2013-08-28 00:20:00,68.0,54.1,29.77,WSW,256,0.0,3.0,61,0.00,,CLR,0.00,VWS V14.01,2013-08-28 07:20:00,
2013-08-28 00:25:00,67.8,54.3,29.77,South,174,2.0,6.0,62,0.00,,CLR,0.00,VWS V14.01,2013-08-28 07:25:00,
2013-08-28 00:30:00,67.6,54.1,29.77,SSW,204,0.0,6.0,62,0.00,,CLR,0.00,VWS V14.01,2013-08-28 07:30:00,
2013-08-28 00:35:00,67.5,54.0,29.77,SSE,149,0.0,3.0,62,0.00,,CLR,0.00,VWS V14.01,2013-08-28 07:35:00,
2013-08-28 00:40:00,67.3,54.3,29.77,SSE,166,0.0,3.0,63,0.00,,CLR,0.00,VWS V14.01,2013-08-28 07:40:00,
2013-08-28 00:45:00,67.1,54.1,29.78,South,169,0.0,3.0,63,0.00,,CLR,0.00,VWS V14.01,2013-08-28 07:45:00,
2013-08-28 00:50:00,66.9,53.9,29.78,NNW,331,0.0,3.0,63,0.00,,CLR,0.00,VWS V14.01,2013-08-28 07:50:00,
2013-08-28 00:55:00,66.8,54.2,29.78,NNE,28,0.0,3.0,64,0.00,,CLR,0.00,VWS V14.01,2013-08-28 07:55:00,
2013-08-28 01:00:00,66.6,54.1,29.78,NNE,28,0.0,3.0,64,0.00,,CLR,0.00,VWS V14.01,2013-08-28 08:00:00,
2013-08-28 01:05:00,66.5,54.0,29.78,SSW,195,0.0,1.0,64,0.00,,CLR,0.00,VWS V14.01,2013-08-28 08:05:00,
2013-08-28 01:10:00,66.3,54.2,29.78,SSW,195,0.0,1.0,65,0.00,,CLR,0.00,VWS V14.01,2013-08-28 08:10:00,
2013-08-28 01:15:00,66.2,54.1,29.78,SW,215,0.0,1.0,65,0.00,,CLR,0.00,VWS V14.01,2013-08-28 08:15:00,
2013-08-28 01:20:00,66.2,54.1,29.78,SSW,200,0.0,1.0,65,0.00,,CLR,0.00,VWS V14.01,2013-08-28 08:20:00,
2013-08-28 01:25:00,66.2,54.1,29.77,SSW,197,0.0,1.0,65,0.00,,CLR,0.00,VWS V14.01,2013-08-28 08:25:00,
2013-08-28 01:30:00,65.9,54.2,29.78,SSW,197,0.0,1.0,66,0.00,,CLR,0.00,VWS V14.01,2013-08-28 08:30:00,
2013-08-28 01:35:00,65.9,54.2,29.78,SSW,207,0.0,1.0,66,0.00,,CLR,0.00,VWS V14.01,2013-08-28 08:35:00,
2013-08-28 01:40:00,65.9,53.8,29.78,SSW,205,0.0,2.0,65,0.00,,CLR,0.00,VWS V14.01,2013-08-28 08:40:00,
2013-08-28 01:45:00,65.8,54.1,29.78,SSE,152,0.0,2.0,66,0.00,,CLR,0.00,VWS V14.01,2013-08-28 08:45:00,
2013-08-28 01:50:00,65.8,54.1,29.78,SSE,152,0.0,2.0,66,0.00,,CLR,0.00,VWS V14.01,2013-08-28 08:50:00,
2013-08-28 01:55:00,65.6,54.0,29.77,South,191,0.0,2.0,66,0.00,,CLR,0.00,VWS V14.01,2013-08-28 08:55:00,
2013-08-28 02:00:00,65.6,54.0,29.78,South,177,0.0,2.0,66,0.00,,CLR,0.00,VWS V14.01,2013-08-28 09:00:00,
2013-08-28 02:05:00,65.6,54.0,29.77,South,186,2.0,2.0,66,0.00,,CLR,0.00,VWS V14.01,2013-08-28 09:05:00,
2013-08-28 02:10:00,65.8,53.7,29.77,SSE,153,0.0,2.0,65,0.00,,CLR,0.00,VWS V14.01,2013-08-28 09:10:00,
2013-08-28 02:15:00,66.0,53.9,29.77,South,184,0.0,2.0,65,0.00,,CLR,0.00,VWS V14.01,2013-08-28 09:15:00,
2013-08-28 02:21:00,65.8,53.7,29.77,South,184,0.0,2.0,65,0.00,,CLR,0.00,VWS V14.01,2013-08-28 09:21:00,
2013-08-28 02:26:00,65.7,53.6,29.77,SSE,164,0.0,2.0,65,0.00,,CLR,0.00,VWS V14.01,2013-08-28 09:26:00,
2013-08-28 02:31:00,65.2,54.0,29.77,SE,136,2.0,2.0,67,0.00,,CLR,0.00,VWS V14.01,2013-08-28 09:31:00,
2013-08-28 02:34:00,64.8,54.0,29.77,SSW,207,1.0,2.0,68,0.00,,CLR,0.00,VWS V14.01,2013-08-28 09:34:00,
2013-08-28 02:39:00,64.3,53.9,29.77,SSE,149,0.0,2.0,69,0.00,,CLR,0.00,VWS V14.01,2013-08-28 09:39:00,
2013-08-28 02:44:00,64.0,54.0,29.77,SE,143,0.0,2.0,70,0.00,,CLR,0.00,VWS V14.01,2013-08-28 09:44:00,
2013-08-28 02:49:00,63.8,53.8,29.77,SSE,164,1.0,2.0,70,0.00,,CLR,0.00,VWS V14.01,2013-08-28 09:49:00,
2013-08-28 02:54:00,63.7,53.7,29.77,South,169,0.0,2.0,70,0.00,,CLR,0.00,VWS V14.01,2013-08-28 09:54:00,
2013-08-28 02:59:00,63.6,54.0,29.77,SSE,167,0.0,2.0,71,0.00,,CLR,0.00,VWS V14.01,2013-08-28 09:59:00,
2013-08-28 03:04:00,63.5,53.9,29.77,South,169,0.0,0.0,71,0.00,,CLR,0.00,VWS V14.01,2013-08-28 10:04:00,
2013-08-28 03:09:00,63.4,53.8,29.77,SSE,166,0.0,0.0,71,0.00,,CLR,0.00,VWS V14.01,2013-08-28 10:09:00,
2013-08-28 03:14:00,63.2,53.7,29.77,SSE,166,0.0,0.0,71,0.00,,CLR,0.00,VWS V14.01,2013-08-28 10:14:00,
2013-08-28 03:19:00,63.0,53.8,29.77,SSW,194,0.0,1.0,72,0.00,,CLR,0.00,VWS V14.01,2013-08-28 10:19:00,
2013-08-28 03:24:00,63.0,53.5,29.78,ESE,123,0.0,1.0,71,0.00,,CLR,0.00,VWS V14.01,2013-08-28 10:24:00,
2013-08-28 03:29:00,62.9,53.8,29.78,SSE,152,0.0,1.0,72,0.00,,CLR,0.00,VWS V14.01,2013-08-28 10:29:00,
2013-08-28 03:34:00,62.7,53.9,29.77,SE,145,0.0,1.0,73,0.00,,CLR,0.00,VWS V14.01,2013-08-28 10:34:00,
2013-08-28 03:39:00,62.5,53.7,29.77,South,169,0.0,1.0,73,0.00,,CLR,0.00,VWS V14.01,2013-08-28 10:39:00,
2013-08-28 03:44:00,62.4,53.6,29.77,SSE,167,0.0,1.0,73,0.00,,CLR,0.00,VWS V14.01,2013-08-28 10:44:00,
2013-08-28 03:49:00,62.1,53.3,29.77,SSE,167,0.0,1.0,73,0.00,,CLR,0.00,VWS V14.01,2013-08-28 10:49:00,
2013-08-28 03:54:00,61.8,53.4,29.77,SSE,156,0.0,1.0,74,0.00,,CLR,0.00,VWS V14.01,2013-08-28 10:54:00,
2013-08-28 03:59:00,61.7,53.7,29.77,SSE,158,0.0,1.0,75,0.00,,CLR,0.00,VWS V14.01,2013-08-28 10:59:00,
2013-08-28 04:04:00,61.7,53.3,29.77,SSE,158,0.0,0.0,74,0.00,,CLR,0.00,VWS V14.01,2013-08-28 11:04:00,
2013-08-28 04:09:00,61.8,53.4,29.77,SSE,156,0.0,0.0,74,0.00,,CLR,0.00,VWS V14.01,2013-08-28 11:09:00,
2013-08-28 04:14:00,61.6,53.6,29.77,SSE,156,0.0,0.0,75,0.00,,CLR,0.00,VWS V14.01,2013-08-28 11:14:00,
2013-08-28 04:19:00,61.7,53.3,29.77,SSE,155,0.0,0.0,74,0.00,,CLR,0.00,VWS V14.01,2013-08-28 11:19:00,
2013-08-28 04:24:00,61.5,53.2,29.77,SSE,155,0.0,0.0,74,0.00,,CLR,0.00,VWS V14.01,2013-08-28 11:24:00,
2013-08-28 04:29:00,61.4,53.4,29.77,SSE,155,0.0,0.0,75,0.00,,CLR,0.00,VWS V14.01,2013-08-28 11:29:00,
2013-08-28 04:34:00,61.2,53.2,29.77,SSE,155,0.0,0.0,75,0.00,,CLR,0.00,VWS V14.01,2013-08-28 11:34:00,
2013-08-28 04:39:00,61.2,53.2,29.77,SSE,156,0.0,0.0,75,0.00,,CLR,0.00,VWS V14.01,2013-08-28 11:39:00,
2013-08-28 04:44:00,61.2,53.2,29.77,SSE,157,0.0,0.0,75,0.00,,CLR,0.00,VWS V14.01,2013-08-28 11:44:00,
2013-08-28 04:49:00,61.0,53.4,29.78,SSE,150,0.0,1.0,76,0.00,,CLR,0.00,VWS V14.01,2013-08-28 11:49:00,
2013-08-28 04:54:00,60.8,52.5,29.78,SSE,149,0.0,1.0,74,0.00,,CLR,0.00,VWS V14.01,2013-08-28 11:54:00,
2013-08-28 04:59:00,60.6,54.1,29.78,SSE,149,0.0,1.0,79,0.00,,CLR,0.00,VWS V14.01,2013-08-28 11:59:00,
2013-08-28 05:04:00,60.3,52.3,29.78,SSE,150,0.0,0.0,75,0.00,,CLR,0.00,VWS V14.01,2013-08-28 12:04:00,
2013-08-28 05:10:00,60.3,52.3,29.78,West,266,0.0,1.0,75,0.00,,CLR,0.00,VWS V14.01,2013-08-28 12:10:00,
2013-08-28 05:15:00,60.3,52.0,29.78,West,273,0.0,1.0,74,0.00,,CLR,0.00,VWS V14.01,2013-08-28 12:15:00,
2013-08-28 05:20:00,60.1,52.2,29.78,West,273,0.0,1.0,75,0.00,,CLR,0.00,VWS V14.01,2013-08-28 12:20:00,
2013-08-28 05:25:00,59.8,52.6,29.78,West,273,0.0,1.0,77,0.00,,CLR,0.00,VWS V14.01,2013-08-28 12:25:00,
2013-08-28 05:30:00,59.7,52.5,29.78,West,273,0.0,1.0,77,0.00,,CLR,0.00,VWS V14.01,2013-08-28 12:30:00,
2013-08-28 05:35:00,59.5,52.6,29.79,West,273,0.0,0.0,78,0.00,,CLR,0.00,VWS V14.01,2013-08-28 12:35:00,
2013-08-28 05:40:00,59.6,53.1,29.78,SSE,162,0.0,1.0,79,0.00,,CLR,0.00,VWS V14.01,2013-08-28 12:40:00,
2013-08-28 05:45:00,60.0,53.1,29.78,SSE,164,0.0,1.0,78,0.00,,CLR,0.00,VWS V14.01,2013-08-28 12:45:00,
2013-08-28 05:50:00,60.3,53.4,29.79,SSE,163,1.0,1.0,78,0.00,,CLR,0.00,VWS V14.01,2013-08-28 12:50:00,
2013-08-28 05:55:00,60.7,53.5,29.79,WSW,246,0.0,2.0,77,0.00,,CLR,0.00,VWS V14.01,2013-08-28 12:55:00,
2013-08-28 06:00:00,61.0,53.4,29.79,WSW,245,0.0,2.0,76,0.00,,CLR,0.00,VWS V14.01,2013-08-28 13:00:00,
2013-08-28 06:05:00,60.8,53.2,29.79,WSW,245,0.0,0.0,76,0.00,,CLR,0.00,VWS V14.01,2013-08-28 13:05:00,
2013-08-28 06:10:00,60.6,53.7,29.79,WSW,245,0.0,0.0,78,0.00,,CLR,0.00,VWS V14.01,2013-08-28 13:10:00,
2013-08-28 06:15:00,60.7,53.5,29.79,SSW,195,0.0,1.0,77,0.00,,CLR,0.00,VWS V14.01,2013-08-28 13:15:00,
2013-08-28 06:20:00,60.9,53.3,29.79,SW,224,0.0,1.0,76,0.00,,CLR,0.00,VWS V14.01,2013-08-28 13:20:00,
2013-08-28 06:25:00,61.1,53.1,29.79,SW,224,0.0,1.0,75,0.00,,CLR,0.00,VWS V14.01,2013-08-28 13:25:00,
2013-08-28 06:30:00,61.0,53.4,29.79,SW,224,0.0,1.0,76,0.00,,CLR,0.00,VWS V14.01,2013-08-28 13:30:00,
2013-08-28 06:35:00,60.8,53.2,29.79,SW,224,0.0,0.0,76,0.00,,CLR,0.00,VWS V14.01,2013-08-28 13:35:00,
2013-08-28 06:40:00,60.7,53.5,29.80,SW,224,0.0,0.0,77,0.00,,CLR,0.00,VWS V14.01,2013-08-28 13:40:00,
2013-08-28 06:45:00,60.4,53.2,29.80,SW,224,0.0,0.0,77,0.00,,CLR,0.00,VWS V14.01,2013-08-28 13:45:00,
2013-08-28 06:50:00,60.4,53.5,29.80,SW,224,0.0,0.0,78,0.00,,CLR,0.00,VWS V14.01,2013-08-28 13:50:00,
2013-08-28 06:55:00,60.5,53.6,29.80,SE,134,0.0,1.0,78,0.00,,CLR,0.00,VWS V14.01,2013-08-28 13:55:00,
2013-08-28 07:00:00,60.9,54.0,29.81,SW,219,0.0,1.0,78,0.00,,CLR,0.00,VWS V14.01,2013-08-28 14:00:00,
2013-08-28 07:05:00,61.3,53.7,29.81,South,188,1.0,2.0,76,0.00,,CLR,0.00,VWS V14.01,2013-08-28 14:05:00,
2013-08-28 07:10:00,61.7,54.1,29.81,South,191,0.0,2.0,76,0.00,,CLR,0.00,VWS V14.01,2013-08-28 14:10:00,
2013-08-28 07:15:00,62.0,54.4,29.81,SSW,207,0.0,2.0,76,0.00,,CLR,0.00,VWS V14.01,2013-08-28 14:15:00,
2013-08-28 07:20:00,62.4,54.4,29.81,SSE,153,0.0,2.0,75,0.00,,CLR,0.00,VWS V14.01,2013-08-28 14:20:00,
2013-08-28 07:26:00,62.7,54.7,29.81,SSE,153,0.0,2.0,75,0.00,,CLR,0.00,VWS V14.01,2013-08-28 14:26:00,
2013-08-28 07:31:00,63.6,54.8,29.82,South,174,0.0,2.0,73,0.00,,CLR,0.00,VWS V14.01,2013-08-28 14:31:00,
2013-08-28 07:36:00,64.8,55.2,29.82,SSE,160,0.0,1.0,71,0.00,,CLR,0.00,VWS V14.01,2013-08-28 14:36:00,
2013-08-28 07:41:00,65.8,55.4,29.82,SW,222,1.0,1.0,69,0.00,,CLR,0.00,VWS V14.01,2013-08-28 14:41:00,
2013-08-28 07:46:00,66.8,55.5,29.82,SW,221,0.0,1.0,67,0.00,,CLR,0.00,VWS V14.01,2013-08-28 14:46:00,
2013-08-28 07:51:00,68.1,55.0,29.82,SSW,205,1.0,1.0,63,0.00,,CLR,0.00,VWS V14.01,2013-08-28 14:51:00,
2013-08-28 07:56:00,69.2,55.2,29.82,South,181,0.0,1.0,61,0.00,,CLR,0.00,VWS V14.01,2013-08-28 14:56:00,
2013-08-28 08:01:00,69.7,55.2,29.82,SSE,150,0.0,2.0,60,0.00,,CLR,0.00,VWS V14.01,2013-08-28 15:01:00,
2013-08-28 08:06:00,70.1,55.1,29.82,SSW,198,0.0,2.0,59,0.00,,CLR,0.00,VWS V14.01,2013-08-28 15:06:00,
2013-08-28 08:12:00,70.9,55.4,29.82,SSE,165,0.0,0.0,58,0.00,,,0.00,VWS V14.01,2013-08-28 15:12:00,
2013-08-28 08:17:00,71.7,55.7,29.82,SSE,159,0.0,1.0,57,0.00,,,0.00,VWS V14.01,2013-08-28 15:17:00,
2013-08-28 08:22:00,72.6,55.5,29.83,SSE,162,0.0,1.0,55,0.00,,,0.00,VWS V14.01,2013-08-28 15:22:00,
2013-08-28 08:27:00,73.7,55.5,29.83,South,173,0.0,1.0,53,0.00,,,0.00,VWS V14.01,2013-08-28 15:27:00,
2013-08-28 08:32:00,74.2,55.5,29.83,SSW,205,2.0,2.0,52,0.00,,,0.00,VWS V14.01,2013-08-28 15:32:00,
2013-08-28 08:37:00,74.3,56.1,29.83,SSW,203,1.0,2.0,53,0.00,,,0.00,VWS V14.01,2013-08-28 15:37:00,
2013-08-28 08:42:00,74.4,56.7,29.83,WSW,256,0.0,2.0,54,0.00,,,0.00,VWS V14.01,2013-08-28 15:42:00,
2013-08-28 08:47:00,74.8,56.5,29.83,SSE,165,0.0,2.0,53,0.00,,,0.00,VWS V14.01,2013-08-28 15:47:00,
2013-08-28 08:53:00,75.4,56.6,29.83,SSE,162,0.0,2.0,52,0.00,,,0.00,VWS V14.01,2013-08-28 15:53:00,
2013-08-28 08:58:00,76.2,57.3,29.83,South,170,0.0,2.0,52,0.00,,,0.00,VWS V14.01,2013-08-28 15:58:00,
2013-08-28 09:03:00,76.9,56.9,29.83,ESE,109,0.0,0.0,50,0.00,,CLR,0.00,VWS V14.01,2013-08-28 16:03:00,
2013-08-28 09:08:00,77.5,56.9,29.83,South,187,0.0,1.0,49,0.00,,CLR,0.00,VWS V14.01,2013-08-28 16:08:00,
2013-08-28 09:13:00,77.7,57.0,29.83,South,191,0.0,2.0,49,0.00,,CLR,0.00,VWS V14.01,2013-08-28 16:13:00,
2013-08-28 09:18:00,77.0,56.4,29.83,SSW,208,0.0,2.0,49,0.00,,CLR,0.00,VWS V14.01,2013-08-28 16:18:00,
2013-08-28 09:23:00,77.7,57.0,29.84,South,173,0.0,3.0,49,0.00,,CLR,0.00,VWS V14.01,2013-08-28 16:23:00,
2013-08-28 09:28:00,78.5,56.0,29.84,South,176,2.0,3.0,46,0.00,,CLR,0.00,VWS V14.01,2013-08-28 16:28:00,
2013-08-28 09:33:00,79.3,56.1,29.84,SSW,193,0.0,0.0,45,0.00,,CLR,0.00,VWS V14.01,2013-08-28 16:33:00,
2013-08-28 09:38:00,79.6,56.4,29.84,East,95,0.0,2.0,45,0.00,,CLR,0.00,VWS V14.01,2013-08-28 16:38:00,
2013-08-28 09:43:00,80.1,56.2,29.84,SSE,166,0.0,2.0,44,0.00,,CLR,0.00,VWS V14.01,2013-08-28 16:43:00,
2013-08-28 09:48:00,81.1,55.9,29.84,SSE,162,0.0,2.0,42,0.00,,CLR,0.00,VWS V14.01,2013-08-28 16:48:00,
2013-08-28 09:53:00,81.7,56.4,29.84,West,275,2.0,2.0,42,0.00,,CLR,0.00,VWS V14.01,2013-08-28 16:53:00,
2013-08-28 09:58:00,81.2,56.0,29.84,WSW,247,0.0,2.0,42,0.00,,CLR,0.00,VWS V14.01,2013-08-28 16:58:00,
2013-08-28 10:03:00,81.3,55.4,29.84,ESE,107,1.0,2.0,41,0.00,,CLR,0.00,VWS V14.01,2013-08-28 17:03:00,
2013-08-28 10:08:00,81.1,54.5,29.84,NNE,22,0.0,2.0,40,0.00,,CLR,0.00,VWS V14.01,2013-08-28 17:08:00,
2013-08-28 10:13:00,81.0,55.8,29.84,ESE,113,1.0,2.0,42,0.00,,CLR,0.00,VWS V14.01,2013-08-28 17:13:00,
2013-08-28 10:18:00,81.9,55.2,29.85,SSE,148,0.0,2.0,40,0.00,,CLR,0.00,VWS V14.01,2013-08-28 17:18:00,
2013-08-28 10:23:00,82.6,55.9,29.85,SE,128,0.0,4.0,40,0.00,,CLR,0.00,VWS V14.01,2013-08-28 17:23:00,
2013-08-28 10:28:00,82.5,55.8,29.85,East,82,0.0,4.0,40,0.00,,CLR,0.00,VWS V14.01,2013-08-28 17:28:00,
2013-08-28 10:33:00,83.1,55.6,29.85,NE,37,0.0,2.0,39,0.00,,CLR,0.00,VWS V14.01,2013-08-28 17:33:00,
2013-08-28 10:38:00,82.9,54.0,29.84,North,358,1.0,3.0,37,0.00,,CLR,0.00,VWS V14.01,2013-08-28 17:38:00,
2013-08-28 10:43:00,82.8,55.3,29.85,NNW,331,0.0,3.0,39,0.00,,CLR,0.00,VWS V14.01,2013-08-28 17:43:00,
2013-08-28 10:48:00,83.4,57.9,29.85,SE,143,1.0,3.0,42,0.00,,CLR,0.00,VWS V14.01,2013-08-28 17:48:00,
2013-08-28 10:53:00,84.4,58.8,29.85,NNE,22,0.0,3.0,42,0.00,,CLR,0.00,VWS V14.01,2013-08-28 17:53:00,
2013-08-28 10:58:00,84.7,57.7,29.85,ESE,108,1.0,3.0,40,0.00,,CLR,0.00,VWS V14.01,2013-08-28 17:58:00,
2013-08-28 11:03:00,84.3,57.4,29.85,ESE,117,2.0,5.0,40,0.00,,CLR,0.00,VWS V14.01,2013-08-28 18:03:00,
2013-08-28 11:09:00,84.3,58.1,29.85,NE,44,0.0,5.0,41,0.00,,CLR,0.00,VWS V14.01,2013-08-28 18:09:00,
2013-08-28 11:14:00,84.6,57.6,29.85,ENE,63,0.0,5.0,40,0.00,,CLR,0.00,VWS V14.01,2013-08-28 18:14:00,
2013-08-28 11:19:00,85.3,57.6,29.85,SE,138,1.0,5.0,39,0.00,,CLR,0.00,VWS V14.01,2013-08-28 18:19:00,
2013-08-28 11:24:00,85.3,55.3,29.85,South,188,0.0,5.0,36,0.00,,CLR,0.00,VWS V14.01,2013-08-28 18:24:00,
2013-08-28 11:29:00,85.9,57.4,29.85,NNE,22,1.0,5.0,38,0.00,,CLR,0.00,VWS V14.01,2013-08-28 18:29:00,
2013-08-28 11:34:00,86.2,56.1,29.85,WNW,285,0.0,1.0,36,0.00,,CLR,0.00,VWS V14.01,2013-08-28 18:34:00,
2013-08-28 11:39:00,87.2,56.2,29.85,East,82,3.0,3.0,35,0.00,,CLR,0.00,VWS V14.01,2013-08-28 18:39:00,
2013-08-28 11:44:00,87.4,56.4,29.85,SE,139,0.0,4.0,35,0.00,,CLR,0.00,VWS V14.01,2013-08-28 18:44:00,
2013-08-28 11:49:00,87.9,55.2,29.85,NNE,25,0.0,4.0,33,0.00,,CLR,0.00,VWS V14.01,2013-08-28 18:49:00,
2013-08-28 11:54:00,87.4,54.0,29.85,WSW,240,0.0,4.0,32,0.00,,CLR,0.00,VWS V14.01,2013-08-28 18:54:00,
2013-08-28 11:59:00,87.5,55.7,29.85,South,181,1.0,4.0,34,0.00,,CLR,0.00,VWS V14.01,2013-08-28 18:59:00,
2013-08-28 12:04:00,87.7,57.5,29.85,ENE,59,0.0,5.0,36,0.00,,CLR,0.00,VWS V14.01,2013-08-28 19:04:00,
2013-08-28 12:09:00,88.2,55.5,29.85,East,99,0.0,5.0,33,0.00,,CLR,0.00,VWS V14.01,2013-08-28 19:09:00,
2013-08-28 12:14:00,88.8,56.0,29.85,East,100,2.0,5.0,33,0.00,,CLR,0.00,VWS V14.01,2013-08-28 19:14:00,
2013-08-28 12:19:00,89.0,55.3,29.85,NE,35,1.0,5.0,32,0.00,,CLR,0.00,VWS V14.01,2013-08-28 19:19:00,
2013-08-28 12:24:00,88.9,55.3,29.85,SSE,156,0.0,5.0,32,0.00,,CLR,0.00,VWS V14.01,2013-08-28 19:24:00,
2013-08-28 12:29:00,89.4,55.7,29.85,SE,130,0.0,5.0,32,0.00,,CLR,0.00,VWS V14.01,2013-08-28 19:29:00,
2013-08-28 12:34:00,90.3,54.7,29.85,NE,34,1.0,3.0,30,0.00,,CLR,0.00,VWS V14.01,2013-08-28 19:34:00,
2013-08-28 12:39:00,90.0,56.2,29.85,East,101,0.0,4.0,32,0.00,,CLR,0.00,VWS V14.01,2013-08-28 19:39:00,
2013-08-28 12:44:00,89.3,54.7,29.85,East,91,1.0,6.0,31,0.00,,CLR,0.00,VWS V14.01,2013-08-28 19:44:00,
2013-08-28 12:49:00,89.8,54.3,29.84,ESE,103,2.0,6.0,30,0.00,,CLR,0.00,VWS V14.01,2013-08-28 19:49:00,
2013-08-28 12:54:00,89.7,54.2,29.84,SE,142,0.0,6.0,30,0.00,,CLR,0.00,VWS V14.01,2013-08-28 19:54:00,
2013-08-28 12:59:00,89.7,53.2,29.84,SSW,203,2.0,6.0,29,0.00,,CLR,0.00,VWS V14.01,2013-08-28 19:59:00,
2013-08-28 13:04:00,90.0,54.4,29.84,NNE,13,1.0,4.0,30,0.00,,CLR,0.00,VWS V14.01,2013-08-28 20:04:00,
2013-08-28 13:09:00,90.5,55.8,29.84,ESE,105,1.0,5.0,31,0.00,,CLR,0.00,VWS V14.01,2013-08-28 20:09:00,
2013-08-28 13:14:00,90.7,58.5,29.84,North,349,0.0,5.0,34,0.00,,CLR,0.00,VWS V14.01,2013-08-28 20:14:00,
2013-08-28 13:19:00,91.3,58.2,29.84,NW,323,0.0,5.0,33,0.00,,CLR,0.00,VWS V14.01,2013-08-28 20:19:00,
2013-08-28 13:24:00,92.1,58.0,29.83,ENE,73,0.0,5.0,32,0.00,,CLR,0.00,VWS V14.01,2013-08-28 20:24:00,
2013-08-28 13:30:00,91.9,57.9,29.83,SE,135,4.0,8.0,32,0.00,,CLR,0.00,VWS V14.01,2013-08-28 20:30:00,
2013-08-28 13:35:00,91.3,57.3,29.83,SE,132,1.0,8.0,32,0.00,,CLR,0.00,VWS V14.01,2013-08-28 20:35:00,
2013-08-28 13:40:00,91.5,57.5,29.83,SE,138,2.0,9.0,32,0.00,,CLR,0.00,VWS V14.01,2013-08-28 20:40:00,
2013-08-28 13:45:00,91.8,56.0,29.83,SE,134,2.0,9.0,30,0.00,,CLR,0.00,VWS V14.01,2013-08-28 20:45:00,
2013-08-28 13:50:00,91.6,58.5,29.83,ENE,73,1.0,9.0,33,0.00,,CLR,0.00,VWS V14.01,2013-08-28 20:50:00,
2013-08-28 13:55:00,92.3,57.3,29.82,ESE,123,4.0,9.0,31,0.00,,CLR,0.00,VWS V14.01,2013-08-28 20:55:00,
2013-08-28 14:00:00,92.2,56.3,29.82,SW,216,3.0,10.0,30,0.00,,CLR,0.00,VWS V14.01,2013-08-28 21:00:00,
2013-08-28 14:05:00,92.5,56.6,29.82,SE,128,2.0,5.0,30,0.00,,CLR,0.00,VWS V14.01,2013-08-28 21:05:00,
2013-08-28 14:10:00,92.6,55.7,29.82,South,191,3.0,9.0,29,0.00,,CLR,0.00,VWS V14.01,2013-08-28 21:10:00,
2013-08-28 14:15:00,92.5,55.7,29.82,SSE,153,2.0,9.0,29,0.00,,CLR,0.00,VWS V14.01,2013-08-28 21:15:00,
2013-08-28 14:20:00,92.7,55.8,29.82,South,179,4.0,9.0,29,0.00,,CLR,0.00,VWS V14.01,2013-08-28 21:20:00,
2013-08-28 14:25:00,93.0,56.1,29.81,SSW,209,7.0,9.0,29,0.00,,CLR,0.00,VWS V14.01,2013-08-28 21:25:00,
2013-08-28 14:30:00,93.2,55.3,29.81,SSE,148,6.0,9.0,28,0.00,,CLR,0.00,VWS V14.01,2013-08-28 21:30:00,
2013-08-28 14:35:00,93.3,55.4,29.81,SSW,207,2.0,10.0,28,0.00,,CLR,0.00,VWS V14.01,2013-08-28 21:35:00,
2013-08-28 14:40:00,93.2,55.3,29.81,ESE,115,2.0,10.0,28,0.00,,CLR,0.00,VWS V14.01,2013-08-28 21:40:00,
2013-08-28 14:45:00,93.5,55.5,29.81,SE,139,2.0,10.0,28,0.00,,CLR,0.00,VWS V14.01,2013-08-28 21:45:00,
2013-08-28 14:50:00,93.5,54.5,29.81,SSE,148,4.0,10.0,27,0.00,,CLR,0.00,VWS V14.01,2013-08-28 21:50:00,
2013-08-28 14:55:00,93.5,54.5,29.80,South,176,5.0,10.0,27,0.00,,CLR,0.00,VWS V14.01,2013-08-28 21:55:00,
2013-08-28 15:00:00,93.2,55.3,29.80,ESE,117,6.0,11.0,28,0.00,,CLR,0.00,VWS V14.01,2013-08-28 22:00:00,
2013-08-28 15:05:00,93.1,53.2,29.80,South,183,6.0,10.0,26,0.00,,CLR,0.00,VWS V14.01,2013-08-28 22:05:00,
2013-08-28 15:10:00,93.4,53.4,29.80,SSW,203,6.0,10.0,26,0.00,,CLR,0.00,VWS V14.01,2013-08-28 22:10:00,
2013-08-28 15:15:00,93.6,54.6,29.80,SSE,165,3.0,10.0,27,0.00,,CLR,0.00,VWS V14.01,2013-08-28 22:15:00,
2013-08-28 15:20:00,93.9,54.9,29.80,South,169,3.0,10.0,27,0.00,,CLR,0.00,VWS V14.01,2013-08-28 22:20:00,
2013-08-28 15:25:00,94.2,54.1,29.80,SSW,198,2.0,10.0,26,0.00,,CLR,0.00,VWS V14.01,2013-08-28 22:25:00,
2013-08-28 15:30:00,94.1,52.9,29.80,ESE,111,3.0,10.0,25,0.00,,CLR,0.00,VWS V14.01,2013-08-28 22:30:00,
2013-08-28 15:35:00,94.2,53.0,29.80,West,259,0.0,6.0,25,0.00,,CLR,0.00,VWS V14.01,2013-08-28 22:35:00,
2013-08-28 15:40:00,94.5,55.4,29.80,South,172,6.0,12.0,27,0.00,,CLR,0.00,VWS V14.01,2013-08-28 22:40:00,
2013-08-28 15:45:00,94.3,55.2,29.79,SE,135,3.0,12.0,27,0.00,,CLR,0.00,VWS V14.01,2013-08-28 22:45:00,
2013-08-28 15:50:00,94.3,54.2,29.79,South,190,5.0,12.0,26,0.00,,CLR,0.00,VWS V14.01,2013-08-28 22:50:00,
2013-08-28 15:55:00,94.3,54.2,29.79,SE,145,1.0,12.0,26,0.00,,CLR,0.00,VWS V14.01,2013-08-28 22:55:00,
2013-08-28 16:01:00,94.3,53.1,29.79,SE,132,5.0,12.0,25,0.00,,CLR,0.00,VWS V14.01,2013-08-28 23:01:00,
2013-08-28 16:06:00,94.3,53.1,29.79,SSW,195,1.0,6.0,25,0.00,,CLR,0.00,VWS V14.01,2013-08-28 23:06:00,
2013-08-28 16:11:00,94.4,54.3,29.79,South,174,1.0,6.0,26,0.00,,CLR,0.00,VWS V14.01,2013-08-28 23:11:00,
2013-08-28 16:15:00,94.4,54.3,29.79,SW,217,2.0,6.0,26,0.00,,CLR,0.00,VWS V14.01,2013-08-28 23:15:00,
2013-08-28 16:20:00,94.5,53.3,29.79,SSW,193,2.0,9.0,25,0.00,,CLR,0.00,VWS V14.01,2013-08-28 23:20:00,
2013-08-28 16:25:00,94.2,54.1,29.79,SSW,204,2.0,9.0,26,0.00,,CLR,0.00,VWS V14.01,2013-08-28 23:25:00,
2013-08-28 16:30:00,94.0,53.9,29.79,SW,217,5.0,9.0,26,0.00,,CLR,0.00,VWS V14.01,2013-08-28 23:30:00,
2013-08-28 16:35:00,93.7,53.7,29.79,SSW,201,2.0,9.0,26,0.00,,CLR,0.00,VWS V14.01,2013-08-28 23:35:00,
2013-08-28 16:40:00,93.5,52.4,29.79,SSW,198,7.0,10.0,25,0.00,,CLR,0.00,VWS V14.01,2013-08-28 23:40:00,
2013-08-28 16:45:00,93.4,52.3,29.79,SSW,212,4.0,11.0,25,0.00,,CLR,0.00,VWS V14.01,2013-08-28 23:45:00,
2013-08-28 16:50:00,93.5,53.5,29.79,South,180,5.0,11.0,26,0.00,,CLR,0.00,VWS V14.01,2013-08-28 23:50:00,
2013-08-28 16:55:00,93.6,52.5,29.79,South,170,1.0,11.0,25,0.00,,CLR,0.00,VWS V14.01,2013-08-28 23:55:00,
2013-08-28 17:01:00,93.4,52.3,29.79,South,172,4.0,11.0,25,0.00,,CLR,0.00,VWS V14.01,2013-08-29 00:01:00,
2013-08-28 17:05:00,93.3,53.3,29.79,SSW,198,3.0,9.0,26,0.00,,CLR,0.00,VWS V14.01,2013-08-29 00:05:00,
2013-08-28 17:10:00,93.5,52.4,29.79,ESE,105,1.0,9.0,25,0.00,,CLR,0.00,VWS V14.01,2013-08-29 00:10:00,
2013-08-28 17:15:00,93.6,53.6,29.79,WSW,239,1.0,9.0,26,0.00,,CLR,0.00,VWS V14.01,2013-08-29 00:15:00,
2013-08-28 17:20:00,93.5,54.5,29.79,ESE,108,1.0,9.0,27,0.00,,CLR,0.00,VWS V14.01,2013-08-29 00:20:00,
2013-08-28 17:25:00,93.3,54.4,29.79,South,176,4.0,9.0,27,0.00,,CLR,0.00,VWS V14.01,2013-08-29 00:25:00,
2013-08-28 17:30:00,93.2,55.3,29.79,South,190,2.0,9.0,28,0.00,,CLR,0.00,VWS V14.01,2013-08-29 00:30:00,
2013-08-28 17:36:00,93.3,55.4,29.79,SSE,167,5.0,5.0,28,0.00,,CLR,0.00,VWS V14.01,2013-08-29 00:36:00,
2013-08-28 17:41:00,92.8,54.9,29.78,SSW,205,4.0,11.0,28,0.00,,CLR,0.00,VWS V14.01,2013-08-29 00:41:00,
2013-08-28 17:46:00,92.7,54.8,29.79,SW,231,1.0,11.0,28,0.00,,CLR,0.00,VWS V14.01,2013-08-29 00:46:00,
2013-08-28 17:51:00,92.3,54.5,29.78,WNW,285,4.0,11.0,28,0.00,,CLR,0.00,VWS V14.01,2013-08-29 00:51:00,
2013-08-28 17:56:00,91.8,55.0,29.79,SSE,154,2.0,11.0,29,0.00,,CLR,0.00,VWS V14.01,2013-08-29 00:56:00,
2013-08-28 18:01:00,91.5,56.6,29.78,SSE,160,2.0,11.0,31,0.00,,CLR,0.00,VWS V14.01,2013-08-29 01:01:00,
2013-08-28 18:06:00,91.3,57.3,29.78,South,181,3.0,6.0,32,0.00,,CLR,0.00,VWS V14.01,2013-08-29 01:06:00,
2013-08-28 18:11:00,91.3,57.3,29.78,WSW,247,0.0,6.0,32,0.00,,CLR,0.00,VWS V14.01,2013-08-29 01:11:00,
2013-08-28 18:16:00,91.0,57.9,29.78,South,180,2.0,9.0,33,0.00,,CLR,0.00,VWS V14.01,2013-08-29 01:16:00,
2013-08-28 18:21:00,90.5,58.3,29.78,SSW,198,2.0,9.0,34,0.00,,CLR,0.00,VWS V14.01,2013-08-29 01:21:00,
2013-08-28 18:26:00,90.3,57.3,29.78,WSW,238,3.0,9.0,33,0.00,,CLR,0.00,VWS V14.01,2013-08-29 01:26:00,
2013-08-28 18:31:00,90.1,58.0,29.78,SSW,193,1.0,9.0,34,0.00,,CLR,0.00,VWS V14.01,2013-08-29 01:31:00,
2013-08-28 18:36:00,90.0,57.9,29.78,SSE,160,2.0,6.0,34,0.00,,CLR,0.00,VWS V14.01,2013-08-29 01:36:00,
2013-08-28 18:41:00,89.8,57.7,29.79,SSE,162,2.0,6.0,34,0.00,,CLR,0.00,VWS V14.01,2013-08-29 01:41:00,
2013-08-28 18:46:00,89.7,58.4,29.79,ESE,120,3.0,8.0,35,0.00,,CLR,0.00,VWS V14.01,2013-08-29 01:46:00,
2013-08-28 18:51:00,89.3,58.1,29.79,SW,228,7.0,8.0,35,0.00,,CLR,0.00,VWS V14.01,2013-08-29 01:51:00,
2013-08-28 18:56:00,88.9,58.5,29.79,ESE,116,3.0,8.0,36,0.00,,CLR,0.00,VWS V14.01,2013-08-29 01:56:00,
2013-08-28 19:01:00,88.4,58.8,29.79,SE,125,2.0,8.0,37,0.00,,CLR,0.00,VWS V14.01,2013-08-29 02:01:00,
2013-08-28 19:06:00,88.0,59.2,29.79,South,172,1.0,5.0,38,0.00,,CLR,0.00,VWS V14.01,2013-08-29 02:06:00,
2013-08-28 19:11:00,87.6,58.9,29.79,South,191,2.0,7.0,38,0.00,,CLR,0.00,VWS V14.01,2013-08-29 02:11:00,
2013-08-28 19:16:00,87.2,59.2,29.79,SSE,162,2.0,7.0,39,0.00,,CLR,0.00,VWS V14.01,2013-08-29 02:16:00,
2013-08-28 19:21:00,86.5,59.3,29.79,SSE,164,1.0,7.0,40,0.00,,CLR,0.00,VWS V14.01,2013-08-29 02:21:00,
2013-08-28 19:26:00,85.5,59.1,29.79,SE,130,2.0,7.0,41,0.00,,CLR,0.00,VWS V14.01,2013-08-29 02:26:00,
2013-08-28 19:31:00,84.7,59.1,29.79,SSE,159,2.0,7.0,42,0.00,,CLR,0.00,VWS V14.01,2013-08-29 02:31:00,
2013-08-28 19:36:00,84.2,59.3,29.79,South,172,1.0,2.0,43,0.00,,CLR,0.00,VWS V14.01,2013-08-29 02:36:00,
2013-08-28 19:41:00,83.5,59.3,29.79,SSW,194,0.0,3.0,44,0.00,,CLR,0.00,VWS V14.01,2013-08-29 02:41:00,
2013-08-28 19:46:00,82.8,59.3,29.79,SSW,200,4.0,4.0,45,0.00,,CLR,0.00,VWS V14.01,2013-08-29 02:46:00,
2013-08-28 19:51:00,82.1,59.3,29.79,SSE,155,1.0,4.0,46,0.00,,CLR,0.00,VWS V14.01,2013-08-29 02:51:00,
2013-08-28 19:56:00,81.4,59.8,29.80,SW,225,6.0,6.0,48,0.00,,CLR,0.00,VWS V14.01,2013-08-29 02:56:00,
2013-08-28 20:01:00,80.8,59.9,29.80,SSW,201,4.0,6.0,49,0.00,,CLR,0.00,VWS V14.01,2013-08-29 03:01:00,
2013-08-28 20:06:00,80.3,60.0,29.80,SSE,158,5.0,5.0,50,0.00,,CLR,0.00,VWS V14.01,2013-08-29 03:06:00,
2013-08-28 20:11:00,79.9,60.2,29.80,SSE,164,2.0,5.0,51,0.00,,CLR,0.00,VWS V14.01,2013-08-29 03:11:00,
2013-08-28 20:16:00,79.6,59.9,29.80,SSW,199,2.0,5.0,51,0.00,,CLR,0.00,VWS V14.01,2013-08-29 03:16:00,
2013-08-28 20:21:00,79.3,60.2,29.80,SSW,205,3.0,5.0,52,0.00,,CLR,0.00,VWS V14.01,2013-08-29 03:21:00,
2013-08-28 20:26:00,78.9,59.8,29.80,SW,221,4.0,6.0,52,0.00,,CLR,0.00,VWS V14.01,2013-08-29 03:26:00,
2013-08-28 20:31:00,78.6,60.1,29.80,SE,141,1.0,6.0,53,0.00,,CLR,0.00,VWS V14.01,2013-08-29 03:31:00,
2013-08-28 20:36:00,78.3,60.3,29.81,South,169,3.0,6.0,54,0.00,,CLR,0.00,VWS V14.01,2013-08-29 03:36:00,
2013-08-28 20:41:00,77.9,59.9,29.81,SW,214,2.0,6.0,54,0.00,,CLR,0.00,VWS V14.01,2013-08-29 03:41:00,
2013-08-28 20:46:00,77.5,60.1,29.81,South,187,1.0,6.0,55,0.00,,CLR,0.00,VWS V14.01,2013-08-29 03:46:00,
2013-08-28 20:51:00,77.3,59.9,29.81,South,172,3.0,7.0,55,0.00,,CLR,0.00,VWS V14.01,2013-08-29 03:51:00,
2013-08-28 20:56:00,77.1,60.2,29.81,SSW,212,3.0,7.0,56,0.00,,CLR,0.00,VWS V14.01,2013-08-29 03:56:00,
2013-08-28 21:01:00,76.9,60.0,29.82,South,187,1.0,7.0,56,0.00,,CLR,0.00,VWS V14.01,2013-08-29 04:01:00,
2013-08-28 21:02:00,76.8,59.9,29.82,SW,215,0.0,2.0,56,0.00,,CLR,0.00,VWS V14.01,2013-08-29 04:02:00,
2013-08-28 21:07:00,76.5,59.7,29.82,SSW,198,1.0,4.0,56,0.00,,CLR,0.00,VWS V14.01,2013-08-29 04:07:00,
2013-08-28 21:12:00,76.2,59.9,29.82,South,173,0.0,4.0,57,0.00,,CLR,0.00,VWS V14.01,2013-08-29 04:12:00,
2013-08-28 21:17:00,75.8,59.5,29.82,SSE,150,1.0,4.0,57,0.00,,CLR,0.00,VWS V14.01,2013-08-29 04:17:00,
2013-08-28 21:22:00,75.3,59.5,29.82,South,173,3.0,4.0,58,0.00,,CLR,0.00,VWS V14.01,2013-08-29 04:22:00,
2013-08-28 21:27:00,74.8,59.5,29.83,SSW,201,1.0,4.0,59,0.00,,CLR,0.00,VWS V14.01,2013-08-29 04:27:00,
2013-08-28 21:32:00,74.5,59.7,29.83,ESE,102,2.0,3.0,60,0.00,,CLR,0.00,VWS V14.01,2013-08-29 04:32:00,
2013-08-28 21:37:00,74.0,59.2,29.83,SSE,150,0.0,3.0,60,0.00,,CLR,0.00,VWS V14.01,2013-08-29 04:37:00,
2013-08-28 21:42:00,73.6,59.3,29.83,SSE,149,1.0,3.0,61,0.00,,CLR,0.00,VWS V14.01,2013-08-29 04:42:00,
2013-08-28 21:47:00,73.3,59.5,29.83,ESE,115,0.0,3.0,62,0.00,,CLR,0.00,VWS V14.01,2013-08-29 04:47:00,
2013-08-28 21:52:00,73.0,59.2,29.83,ESE,116,0.0,3.0,62,0.00,,CLR,0.00,VWS V14.01,2013-08-29 04:52:00,
2013-08-28 21:57:00,72.7,59.4,29.83,SSE,166,0.0,3.0,63,0.00,,CLR,0.00,VWS V14.01,2013-08-29 04:57:00,
2013-08-28 22:02:00,72.6,59.3,29.83,SSE,167,0.0,0.0,63,0.00,,CLR,0.00,VWS V14.01,2013-08-29 05:02:00,
2013-08-28 22:07:00,72.4,59.1,29.83,SSE,166,0.0,0.0,63,0.00,,CLR,0.00,VWS V14.01,2013-08-29 05:07:00,
2013-08-28 22:12:00,72.2,59.4,29.83,SSE,166,0.0,0.0,64,0.00,,CLR,0.00,VWS V14.01,2013-08-29 05:12:00,
2013-08-28 22:17:00,72.0,59.2,29.83,SSE,168,0.0,0.0,64,0.00,,CLR,0.00,VWS V14.01,2013-08-29 05:17:00,
2013-08-28 22:22:00,71.8,59.0,29.83,SSE,166,0.0,0.0,64,0.00,,CLR,0.00,VWS V14.01,2013-08-29 05:22:00,
2013-08-28 22:27:00,71.7,58.9,29.83,SSW,204,0.0,2.0,64,0.00,,CLR,0.00,VWS V14.01,2013-08-29 05:27:00,
2013-08-28 22:32:00,72.1,58.8,29.83,SSE,166,3.0,4.0,63,0.00,,CLR,0.00,VWS V14.01,2013-08-29 05:32:00,
2013-08-28 22:37:00,72.5,58.8,29.83,South,177,1.0,4.0,62,0.00,,CLR,0.00,VWS V14.01,2013-08-29 05:37:00,
2013-08-28 22:42:00,72.6,58.8,29.83,SSE,163,2.0,4.0,62,0.00,,CLR,0.00,VWS V14.01,2013-08-29 05:42:00,
2013-08-28 22:47:00,72.6,58.8,29.83,SSE,158,1.0,4.0,62,0.00,,CLR,0.00,VWS V14.01,2013-08-29 05:47:00,
2013-08-28 22:52:00,72.6,58.8,29.83,SSE,162,1.0,4.0,62,0.00,,CLR,0.00,VWS V14.01,2013-08-29 05:52:00,
2013-08-28 22:57:00,72.6,58.8,29.83,South,169,2.0,4.0,62,0.00,,CLR,0.00,VWS V14.01,2013-08-29 05:57:00,
2013-08-28 23:02:00,72.6,58.8,29.83,South,169,0.0,3.0,62,0.00,,CLR,0.00,VWS V14.01,2013-08-29 06:02:00,
2013-08-28 23:07:00,72.4,58.2,29.83,SSW,200,0.0,3.0,61,0.00,,CLR,0.00,VWS V14.01,2013-08-29 06:07:00,
2013-08-28 23:12:00,72.0,58.3,29.83,SSW,200,0.0,3.0,62,0.00,,CLR,0.00,VWS V14.01,2013-08-29 06:12:00,
2013-08-28 23:17:00,71.6,58.3,29.84,SSW,200,0.0,3.0,63,0.00,,CLR,0.00,VWS V14.01,2013-08-29 06:17:00,
2013-08-28 23:22:00,71.4,58.2,29.83,SSW,200,0.0,3.0,63,0.00,,CLR,0.00,VWS V14.01,2013-08-29 06:22:00,
2013-08-28 23:27:00,71.2,58.0,29.83,SW,234,0.0,3.0,63,0.00,,CLR,0.00,VWS V14.01,2013-08-29 06:27:00,
2013-08-28 23:32:00,71.0,57.8,29.83,SW,235,0.0,0.0,63,0.00,,CLR,0.00,VWS V14.01,2013-08-29 06:32:00,
2013-08-28 23:37:00,70.6,57.4,29.84,SW,235,0.0,0.0,63,0.00,,CLR,0.00,VWS V14.01,2013-08-29 06:37:00,
2013-08-28 23:42:00,70.2,57.5,29.84,SW,235,0.0,0.0,64,0.00,,CLR,0.00,VWS V14.01,2013-08-29 06:42:00,
2013-08-28 23:47:00,69.9,58.0,29.84,SW,234,0.0,0.0,66,0.00,,CLR,0.00,VWS V14.01,2013-08-29 06:47:00,
2013-08-28 23:52:00,69.7,57.8,29.84,East,94,0.0,1.0,66,0.00,,CLR,0.00,VWS V14.01,2013-08-29 06:52:00,
2013-08-28 23:57:00,69.5,57.7,29.84,East,95,0.0,1.0,66,0.00,,CLR,0.00,VWS V14.01,2013-08-29 06:57:00,